createdAt,value
2023-11-14T00:01:22.787Z,87.64
2023-11-14T00:03:52.299Z,87.55
2023-11-14T00:06:22.691Z,87.36
2023-11-14T00:08:52.114Z,87.33
2023-11-14T00:11:22.980Z,87.42
2023-11-14T00:13:52.833Z,87.60
2023-11-14T00:16:22.838Z,87.77
2023-11-14T00:18:52.693Z,87.99
2023-11-14T00:21:22.161Z,87.64
2023-11-14T00:23:52.162Z,87.53
2023-11-14T00:26:23.769Z,87.52
2023-11-14T00:28:54.534Z,86.96
2023-11-14T00:31:25.632Z,87.07
2023-11-14T00:33:55.741Z,86.91
2023-11-14T00:36:25.771Z,87.49
2023-11-14T00:39:01.089Z,87.46
2023-11-14T00:41:30.564Z,86.71
2023-11-14T00:43:59.975Z,87.10
2023-11-14T00:46:35.376Z,87.28
2023-11-14T00:49:08.329Z,87.25
2023-11-14T00:51:37.769Z,86.25
2023-11-14T00:54:07.240Z,86.97
2023-11-14T00:56:36.619Z,87.09
2023-11-14T00:59:06.659Z,87.01
2023-11-14T01:01:36.165Z,86.76
2023-11-14T01:04:05.777Z,87.07
2023-11-14T01:06:35.685Z,86.45
2023-11-14T01:09:05.166Z,86.19
2023-11-14T01:11:34.577Z,86.79
2023-11-14T01:14:04.137Z,85.88
2023-11-14T01:16:33.801Z,85.77
2023-11-14T01:19:03.607Z,85.46
2023-11-14T01:21:33.903Z,85.60
2023-11-14T01:24:03.497Z,85.82
2023-11-14T01:26:36.994Z,85.79
2023-11-14T01:29:06.644Z,85.52
2023-11-14T01:31:36.172Z,85.58
2023-11-14T01:34:05.652Z,85.50
2023-11-14T01:36:37.164Z,85.72
2023-11-14T01:39:08.404Z,85.50
2023-11-14T01:41:37.874Z,85.49
2023-11-14T01:44:07.373Z,85.74
2023-11-14T01:46:37.945Z,86.06
2023-11-14T01:49:07.864Z,85.94
2023-11-14T01:51:37.644Z,85.70
2023-11-14T01:54:09.252Z,86.65
2023-11-14T01:56:39.796Z,86.73
2023-11-14T01:59:10.083Z,86.86
2023-11-14T02:01:40.777Z,86.75
2023-11-14T02:04:23.611Z,86.60
2023-11-14T02:06:53.280Z,86.64
2023-11-14T02:09:23.215Z,86.60
2023-11-14T02:11:52.791Z,87.08
2023-11-14T02:14:22.567Z,87.48
2023-11-14T02:16:57.540Z,87.47
2023-11-14T02:19:28.236Z,87.04
2023-11-14T02:21:57.731Z,87.18
2023-11-14T02:24:28.900Z,86.86
2023-11-14T02:26:59.596Z,86.52
2023-11-14T02:29:30.282Z,86.52
2023-11-14T02:32:00.103Z,86.64
2023-11-14T02:34:29.933Z,86.85
2023-11-14T02:36:59.504Z,86.65
2023-11-14T02:39:30.134Z,86.14
2023-11-14T02:42:00.146Z,85.86
2023-11-14T02:44:29.824Z,86.27
2023-11-14T02:47:00.052Z,86.04
2023-11-14T02:49:51.108Z,86.28
2023-11-14T02:52:21.266Z,85.70
2023-11-14T02:54:52.062Z,85.56
2023-11-14T02:57:21.531Z,85.34
2023-11-14T02:59:50.989Z,85.67
2023-11-14T03:02:20.380Z,85.50
2023-11-14T03:04:50.469Z,85.40
2023-11-14T03:07:20.681Z,85.04
2023-11-14T03:09:50.073Z,85.30
2023-11-14T03:12:19.572Z,85.44
2023-11-14T03:14:49.077Z,85.79
2023-11-14T03:17:20.044Z,85.96
2023-11-14T03:19:49.519Z,85.84
2023-11-14T03:22:18.938Z,86.18
2023-11-14T03:24:48.767Z,86.25
2023-11-14T03:27:18.320Z,87.58
2023-11-14T03:29:47.777Z,88.29
2023-11-14T03:32:20.105Z,88.12
2023-11-14T03:34:50.301Z,87.80
2023-11-14T03:37:19.725Z,88.67
2023-11-14T03:39:49.908Z,88.92
2023-11-14T03:42:19.778Z,89.16
2023-11-14T03:44:49.292Z,89.81
2023-11-14T03:47:18.646Z,90.08
2023-11-14T03:49:48.194Z,90.55
2023-11-14T03:52:17.607Z,91.82
2023-11-14T03:54:47.465Z,92.20
2023-11-14T03:57:16.938Z,92.46
2023-11-14T03:59:46.385Z,92.30
2023-11-14T04:02:16.174Z,92.49
2023-11-14T04:04:45.862Z,92.20
2023-11-14T04:07:16.237Z,92.44
2023-11-14T04:09:45.669Z,91.88
2023-11-14T04:12:15.102Z,91.77
2023-11-14T04:14:44.804Z,91.20
2023-11-14T04:17:17.523Z,90.28
2023-11-14T04:19:47.051Z,90.53
2023-11-14T04:22:16.479Z,90.02
2023-11-14T04:24:46.463Z,89.57
2023-11-14T04:27:15.895Z,89.53
2023-11-14T04:29:45.358Z,89.82
2023-11-14T04:32:14.913Z,88.76
2023-11-14T04:34:47.044Z,89.04
2023-11-14T04:37:16.494Z,88.17
2023-11-14T04:39:47.036Z,88.12
2023-11-14T04:42:16.520Z,88.18
2023-11-14T04:44:46.059Z,87.87
2023-11-14T04:47:15.458Z,87.39
2023-11-14T04:49:46.785Z,87.49
2023-11-14T04:52:18.407Z,87.39
2023-11-14T04:54:48.157Z,87.47
2023-11-14T04:57:18.985Z,87.20
2023-11-14T04:59:49.317Z,87.17
2023-11-14T05:02:18.943Z,87.25
2023-11-14T05:04:48.580Z,87.12
2023-11-14T05:07:17.961Z,86.83
2023-11-14T05:09:47.385Z,87.79
2023-11-14T05:12:16.959Z,87.24
2023-11-14T05:14:49.641Z,87.08
2023-11-14T05:17:19.265Z,86.83
2023-11-14T05:19:49.029Z,87.09
2023-11-14T05:22:18.516Z,87.34
2023-11-14T05:24:48.410Z,87.55
2023-11-14T05:27:17.778Z,87.82
2023-11-14T05:29:47.608Z,87.98
2023-11-14T05:32:17.044Z,87.46
2023-11-14T05:34:46.972Z,87.50
2023-11-14T05:37:16.509Z,87.39
2023-11-14T05:39:46.007Z,87.71
2023-11-14T05:42:15.403Z,87.71
2023-11-14T05:44:45.400Z,87.67
2023-11-14T05:47:15.791Z,87.60
2023-11-14T05:49:45.220Z,87.49
2023-11-14T05:52:14.769Z,87.88
2023-11-14T05:54:44.225Z,87.35
2023-11-14T05:57:13.566Z,87.58
2023-11-14T05:59:43.051Z,87.43
2023-11-14T06:02:12.659Z,87.51
2023-11-14T06:04:42.628Z,87.77
2023-11-14T06:07:12.130Z,87.91
2023-11-14T06:09:41.563Z,87.93
2023-11-14T06:12:11.527Z,87.71
2023-11-14T06:14:41.191Z,87.88
2023-11-14T06:17:10.604Z,88.17
2023-11-14T06:19:40.181Z,88.10
2023-11-14T06:22:10.611Z,88.10
2023-11-14T06:24:40.230Z,88.20
2023-11-14T06:27:09.722Z,88.37
2023-11-14T06:29:42.215Z,88.67
2023-11-14T06:32:13.940Z,88.34
2023-11-14T06:34:43.590Z,88.56
2023-11-14T06:37:13.109Z,88.68
2023-11-14T06:39:42.553Z,88.73
2023-11-14T06:42:12.061Z,88.88
2023-11-14T06:44:45.571Z,88.90
2023-11-14T06:47:16.789Z,89.08
2023-11-14T06:49:46.995Z,89.18
2023-11-14T06:52:16.519Z,89.49
2023-11-14T06:54:46.269Z,89.54
2023-11-14T06:57:15.661Z,89.50
2023-11-14T06:59:45.071Z,89.62
2023-11-14T07:02:14.555Z,89.95
2023-11-14T07:04:45.282Z,89.98
2023-11-14T07:07:14.837Z,89.89
2023-11-14T07:09:45.290Z,90.33
2023-11-14T07:12:14.760Z,91.15
2023-11-14T07:14:44.630Z,91.65
2023-11-14T07:17:14.761Z,92.40
2023-11-14T07:19:44.328Z,92.62
2023-11-14T07:22:14.107Z,93.10
2023-11-14T07:24:44.634Z,93.09
2023-11-14T07:27:16.616Z,93.50
2023-11-14T07:29:47.240Z,93.74
2023-11-14T07:32:16.786Z,93.91
2023-11-14T07:34:47.003Z,94.09
2023-11-14T07:37:16.441Z,93.86
2023-11-14T07:39:45.833Z,93.43
2023-11-14T07:42:15.339Z,93.33
2023-11-14T07:44:45.208Z,93.36
2023-11-14T07:47:20.742Z,93.45
2023-11-14T07:49:51.871Z,93.25
2023-11-14T07:52:21.371Z,93.27
2023-11-14T07:54:54.365Z,93.52
2023-11-14T07:57:23.790Z,93.32
2023-11-14T07:59:53.276Z,93.33
2023-11-14T08:02:22.737Z,93.24
2023-11-14T08:04:53.914Z,93.41
2023-11-14T08:07:23.453Z,93.10
2023-11-14T08:09:53.009Z,93.12
2023-11-14T08:12:22.420Z,93.25
2023-11-14T08:14:52.219Z,93.30
2023-11-14T08:17:21.915Z,93.42
2023-11-14T08:19:51.526Z,93.21
2023-11-14T08:22:21.059Z,93.47
2023-11-14T08:24:50.662Z,93.57
2023-11-14T08:27:22.554Z,93.27
2023-11-14T08:29:52.624Z,93.13
2023-11-14T08:32:22.005Z,93.41
2023-11-14T08:34:51.611Z,93.49
2023-11-14T08:37:23.670Z,93.63
2023-11-14T08:39:54.034Z,93.36
2023-11-14T08:42:23.417Z,93.56
2023-11-14T08:44:54.145Z,93.62
2023-11-14T08:47:24.067Z,93.82
2023-11-14T08:49:53.616Z,94.00
2023-11-14T08:52:24.173Z,94.50
2023-11-14T08:54:54.498Z,94.97
2023-11-14T08:57:23.968Z,95.03
2023-11-14T08:59:53.424Z,95.49
2023-11-14T09:02:23.324Z,95.10
2023-11-14T09:04:53.260Z,94.14
2023-11-14T09:07:22.722Z,94.44
2023-11-14T09:09:52.109Z,94.61
2023-11-14T09:12:21.515Z,93.87
2023-11-14T09:14:54.051Z,93.85
2023-11-14T09:17:23.566Z,93.12
2023-11-14T09:19:54.058Z,93.32
2023-11-14T09:22:26.275Z,92.71
2023-11-14T09:24:56.328Z,92.39
2023-11-14T09:27:26.463Z,91.68
2023-11-14T09:29:56.359Z,90.92
2023-11-14T09:32:25.949Z,91.11
2023-11-14T09:34:56.565Z,89.94
2023-11-14T09:37:26.066Z,89.47
2023-11-14T09:39:55.562Z,89.26
2023-11-14T09:42:25.410Z,88.86
2023-11-14T09:44:55.263Z,89.64
2023-11-14T09:47:25.503Z,90.14
2023-11-14T09:49:54.997Z,89.89
2023-11-14T09:52:25.157Z,89.91
2023-11-14T09:54:55.095Z,89.92
2023-11-14T09:57:25.513Z,90.13
2023-11-14T09:59:56.020Z,89.43
2023-11-14T10:02:28.165Z,88.90
2023-11-14T10:05:03.886Z,89.61
2023-11-14T10:07:40.663Z,89.53
2023-11-14T10:10:11.849Z,89.14
2023-11-14T10:12:42.162Z,89.24
2023-11-14T10:15:11.859Z,89.36
2023-11-14T10:17:49.700Z,89.28
2023-11-14T10:20:24.010Z,88.81
2023-11-14T10:23:05.045Z,87.74
2023-11-14T10:25:38.531Z,87.15
2023-11-14T10:28:08.673Z,87.43
2023-11-14T10:30:47.407Z,87.25
2023-11-14T10:33:17.830Z,87.23
2023-11-14T10:35:49.098Z,87.42
2023-11-14T10:38:21.043Z,88.06
2023-11-14T10:40:53.965Z,87.22
2023-11-14T10:43:36.330Z,87.74
2023-11-14T10:46:15.188Z,87.27
2023-11-14T10:48:45.166Z,87.20
2023-11-14T10:51:20.894Z,87.17
2023-11-14T10:53:52.185Z,87.27
2023-11-14T10:56:22.918Z,87.05
2023-11-14T10:58:53.078Z,87.28
2023-11-14T11:01:24.196Z,86.63
2023-11-14T11:03:57.954Z,85.98
2023-11-14T11:06:27.828Z,86.16
2023-11-14T11:08:57.681Z,86.03
2023-11-14T11:11:35.144Z,85.68
2023-11-14T11:14:10.743Z,85.66
2023-11-14T11:16:54.419Z,84.80
2023-11-14T11:19:27.067Z,84.86
2023-11-14T11:22:00.494Z,84.90
2023-11-14T11:24:40.435Z,85.87
2023-11-14T11:27:22.874Z,85.40
2023-11-14T11:29:57.628Z,85.17
2023-11-14T11:32:34.965Z,85.49
2023-11-14T11:35:24.538Z,85.03
2023-11-14T11:37:58.433Z,85.10
2023-11-14T11:40:32.151Z,85.12
2023-11-14T11:43:22.837Z,85.65
2023-11-14T11:45:55.380Z,84.99
2023-11-14T11:48:37.206Z,86.29
2023-11-14T11:51:22.435Z,86.09
2023-11-14T11:53:52.190Z,85.85
2023-11-14T11:56:40.987Z,86.44
2023-11-14T11:59:10.450Z,87.26
2023-11-14T12:01:54.365Z,87.62
2023-11-14T12:04:25.776Z,87.06
2023-11-14T12:06:58.225Z,86.03
2023-11-14T12:09:29.905Z,86.48
2023-11-14T12:11:59.770Z,86.65
2023-11-14T12:14:31.672Z,86.33
2023-11-14T12:17:04.726Z,86.83
2023-11-14T12:19:34.494Z,86.43
2023-11-14T12:22:06.928Z,86.28
2023-11-14T12:24:36.798Z,86.94
2023-11-14T12:27:06.515Z,86.08
2023-11-14T12:29:36.015Z,86.71
2023-11-14T12:32:07.548Z,86.80
2023-11-14T12:34:39.167Z,86.78
2023-11-14T12:37:14.131Z,86.23
2023-11-14T12:39:43.640Z,86.18
2023-11-14T12:42:15.500Z,85.99
2023-11-14T12:44:45.506Z,86.27
2023-11-14T12:47:14.965Z,85.94
2023-11-14T12:49:52.042Z,85.90
2023-11-14T12:52:26.931Z,85.34
2023-11-14T12:54:56.738Z,85.45
2023-11-14T12:57:26.141Z,85.47
2023-11-14T12:59:56.096Z,85.99
2023-11-14T13:02:25.581Z,85.68
2023-11-14T13:04:55.336Z,86.12
2023-11-14T13:07:24.864Z,86.10
2023-11-14T13:10:02.093Z,86.73
2023-11-14T13:12:31.907Z,86.92
2023-11-14T13:15:01.658Z,87.55
2023-11-14T13:17:31.061Z,88.15
2023-11-14T13:20:00.578Z,88.41
2023-11-14T13:22:33.844Z,89.04
2023-11-14T13:25:08.089Z,88.68
2023-11-14T13:27:37.532Z,88.64
2023-11-14T13:30:07.526Z,88.56
2023-11-14T13:32:37.113Z,88.32
2023-11-14T13:35:08.096Z,88.65
2023-11-14T13:37:37.525Z,88.82
2023-11-14T13:40:09.736Z,88.86
2023-11-14T13:42:43.011Z,89.03
2023-11-14T13:45:15.989Z,89.36
2023-11-14T13:47:47.732Z,89.74
2023-11-14T13:50:17.228Z,90.42
2023-11-14T13:52:47.939Z,90.42
2023-11-14T13:55:19.424Z,90.73
2023-11-14T13:57:49.894Z,90.46
2023-11-14T14:00:19.517Z,90.71
2023-11-14T14:02:49.416Z,90.85
2023-11-14T14:05:19.378Z,91.38
2023-11-14T14:07:48.894Z,91.64
2023-11-14T14:10:18.708Z,91.82
2023-11-14T14:12:48.190Z,92.26
2023-11-14T14:15:18.239Z,92.22
2023-11-14T14:17:48.963Z,92.41
2023-11-14T14:20:19.571Z,92.38
2023-11-14T14:22:56.288Z,92.62
2023-11-14T14:25:29.026Z,92.32
2023-11-14T14:27:58.434Z,92.80
2023-11-14T14:30:27.787Z,92.55
2023-11-14T14:32:57.991Z,92.87
2023-11-14T14:35:28.460Z,92.97
2023-11-14T14:37:58.027Z,92.96
2023-11-14T14:40:27.777Z,93.30
2023-11-14T14:42:57.213Z,93.82
2023-11-14T14:45:26.858Z,93.85
2023-11-14T14:47:56.331Z,93.84
2023-11-14T14:50:27.077Z,94.04
2023-11-14T14:52:56.651Z,94.26
2023-11-14T14:55:26.464Z,94.34
2023-11-14T14:58:01.852Z,94.51
2023-11-14T15:00:33.247Z,94.58
2023-11-14T15:03:03.771Z,94.78
2023-11-14T15:05:37.011Z,94.47
2023-11-14T15:08:08.078Z,94.50
2023-11-14T15:10:37.813Z,94.39
2023-11-14T15:13:10.997Z,94.81
2023-11-14T15:15:45.363Z,94.88
2023-11-14T15:18:14.881Z,94.69
2023-11-14T15:20:47.678Z,94.89
2023-11-14T15:23:21.082Z,94.80
2023-11-14T15:25:51.502Z,95.00
2023-11-14T15:28:21.018Z,95.18
2023-11-14T15:30:50.416Z,94.74
2023-11-14T15:33:20.021Z,95.02
2023-11-14T15:35:50.081Z,95.37
2023-11-14T15:38:19.648Z,95.34
2023-11-14T15:40:49.074Z,95.49
2023-11-14T15:43:18.606Z,95.58
2023-11-14T15:45:49.098Z,95.61
2023-11-14T15:48:20.955Z,95.44
2023-11-14T15:50:53.134Z,95.61
2023-11-14T15:53:22.600Z,95.65
2023-11-14T15:55:52.333Z,95.95
2023-11-14T15:58:21.727Z,95.61
2023-11-14T16:00:51.212Z,95.63
2023-11-14T16:03:21.231Z,95.99
2023-11-14T16:05:51.704Z,95.67
2023-11-14T16:08:21.205Z,95.87
2023-11-14T16:10:50.896Z,96.23
2023-11-14T16:13:22.942Z,96.10
2023-11-14T16:15:53.831Z,96.37
2023-11-14T16:18:23.445Z,96.36
2023-11-14T16:20:53.822Z,96.42
2023-11-14T16:23:23.263Z,97.00
2023-11-14T16:25:52.872Z,96.85
2023-11-14T16:28:22.250Z,96.88
2023-11-14T16:30:51.738Z,97.27
2023-11-14T16:33:21.405Z,97.27
2023-11-14T16:35:51.387Z,97.51
2023-11-14T16:38:20.794Z,97.67
2023-11-14T16:40:50.626Z,98.03
2023-11-14T16:43:20.026Z,98.25
2023-11-14T16:45:49.669Z,98.48
2023-11-14T16:48:19.948Z,99.00
2023-11-14T16:50:49.454Z,99.07
2023-11-14T16:53:19.556Z,99.65
2023-11-14T16:55:49.370Z,99.59
2023-11-14T16:58:18.798Z,99.81
2023-11-14T17:00:48.791Z,99.98
2023-11-14T17:03:18.403Z,100.00
2023-11-14T17:05:48.116Z,100.00
2023-11-14T17:08:17.650Z,100.00
2023-11-14T17:10:47.074Z,100.00
2023-11-14T17:13:16.532Z,100.00
2023-11-14T17:15:46.221Z,100.00
2023-11-14T17:18:15.719Z,100.00
2023-11-14T17:20:45.166Z,100.00
2023-11-14T17:23:14.646Z,100.00
2023-11-14T17:25:45.204Z,100.00
2023-11-14T17:28:15.692Z,100.00
2023-11-14T17:30:45.176Z,100.00
2023-11-14T17:33:15.132Z,100.00
2023-11-14T17:35:45.524Z,100.00
2023-11-14T17:38:15.228Z,100.00
2023-11-14T17:40:44.715Z,100.00
2023-11-14T17:43:14.096Z,100.00
2023-11-14T17:45:43.904Z,100.00
2023-11-14T17:48:13.410Z,100.00
2023-11-14T17:50:43.274Z,100.00
2023-11-14T17:53:12.882Z,100.00
2023-11-14T17:55:42.685Z,100.00
2023-11-14T17:58:12.241Z,100.00
2023-11-14T18:00:41.937Z,100.00
2023-11-14T18:03:11.548Z,100.00
2023-11-14T18:05:41.797Z,100.00
2023-11-14T18:08:11.691Z,100.00
2023-11-14T18:10:41.978Z,100.00
2023-11-14T18:13:15.955Z,100.00
2023-11-14T18:15:45.786Z,100.00
2023-11-14T18:18:15.287Z,100.00
2023-11-14T18:20:45.706Z,100.00
2023-11-14T18:23:15.089Z,100.00
2023-11-14T18:25:44.698Z,100.00
2023-11-14T18:28:15.518Z,100.00
2023-11-14T18:30:45.079Z,100.00
2023-11-14T18:33:14.505Z,100.00
2023-11-14T18:35:47.280Z,100.00
2023-11-14T18:38:16.686Z,100.00
2023-11-14T18:40:46.136Z,100.00
2023-11-14T18:43:15.691Z,100.00
2023-11-14T18:45:45.640Z,100.00
2023-11-14T18:48:15.158Z,100.00
2023-11-14T18:50:46.420Z,100.00
2023-11-14T18:53:19.873Z,100.00
2023-11-14T18:55:49.856Z,100.00
2023-11-14T18:58:19.961Z,100.00
2023-11-14T19:00:49.772Z,100.00
2023-11-14T19:03:19.354Z,100.00
2023-11-14T19:05:49.160Z,100.00
2023-11-14T19:08:18.656Z,100.00
2023-11-14T19:10:48.114Z,100.00
2023-11-14T19:13:17.582Z,100.00
2023-11-14T19:15:47.631Z,100.00
2023-11-14T19:18:19.229Z,100.00
2023-11-14T19:21:18.572Z,100.00
2023-11-14T19:23:43.977Z,100.00
2023-11-14T19:26:14.962Z,100.00
2023-11-14T19:28:44.929Z,100.00
2023-11-14T19:31:14.616Z,100.00
2023-11-14T19:33:46.554Z,100.00
2023-11-14T19:36:16.232Z,100.00
2023-11-14T19:38:45.743Z,100.00
2023-11-14T19:41:15.276Z,100.00
2023-11-14T19:43:46.430Z,100.00
2023-11-14T19:46:16.486Z,100.00
2023-11-14T19:48:45.941Z,100.00
2023-11-14T19:51:17.280Z,100.00
2023-11-14T19:53:46.687Z,100.00
2023-11-14T19:56:16.600Z,100.00
2023-11-14T19:58:46.011Z,100.00
2023-11-14T20:01:17.006Z,100.00
2023-11-14T20:03:46.606Z,100.00
2023-11-14T20:06:16.937Z,100.00
2023-11-14T20:08:46.417Z,100.00
2023-11-14T20:11:15.998Z,100.00
2023-11-14T20:13:46.502Z,100.00
2023-11-14T20:16:16.360Z,100.00
2023-11-14T20:18:47.163Z,100.00
2023-11-14T20:21:21.851Z,100.00
2023-11-14T20:23:57.843Z,100.00
2023-11-14T20:26:29.061Z,100.00
2023-11-14T20:28:58.497Z,100.00
2023-11-14T20:31:27.971Z,100.00
2023-11-14T20:33:57.644Z,100.00
2023-11-14T20:36:28.331Z,100.00
2023-11-14T20:38:58.084Z,100.00
2023-11-14T20:41:28.521Z,100.00
2023-11-14T20:43:58.595Z,100.00
2023-11-14T20:46:28.267Z,100.00
2023-11-14T20:48:57.690Z,100.00
2023-11-14T20:51:28.094Z,100.00
2023-11-14T20:53:59.633Z,100.00
2023-11-14T20:56:31.217Z,100.00
2023-11-14T20:59:00.804Z,100.00
2023-11-14T21:01:30.334Z,100.00
2023-11-14T21:03:59.825Z,100.00
2023-11-14T21:06:30.277Z,100.00
2023-11-14T21:09:02.858Z,100.00
2023-11-14T21:11:35.283Z,100.00
2023-11-14T21:14:04.752Z,100.00
2023-11-14T21:16:39.509Z,100.00
2023-11-14T21:19:09.048Z,100.00
2023-11-14T21:21:46.277Z,100.00
2023-11-14T21:24:15.681Z,100.00
2023-11-14T21:26:45.083Z,100.00
2023-11-14T21:29:17.302Z,100.00
2023-11-14T21:31:48.092Z,100.00
2023-11-14T21:34:17.612Z,100.00
2023-11-14T21:36:47.026Z,100.00
2023-11-14T21:39:17.524Z,100.00
2023-11-14T21:41:46.980Z,100.00
2023-11-14T21:44:16.568Z,100.00
2023-11-14T21:46:46.023Z,100.00
2023-11-14T21:49:15.397Z,100.00
2023-11-14T21:51:44.745Z,100.00
2023-11-14T21:54:14.142Z,100.00
2023-11-14T21:56:43.564Z,100.00
2023-11-14T21:59:13.069Z,100.00
2023-11-14T22:01:42.449Z,100.00
2023-11-14T22:04:12.077Z,100.00
2023-11-14T22:06:42.171Z,100.00
2023-11-14T22:09:12.648Z,100.00
2023-11-14T22:11:42.789Z,100.00
2023-11-14T22:14:13.341Z,100.00
2023-11-14T22:16:42.873Z,100.00
2023-11-14T22:19:12.277Z,100.00
2023-11-14T22:21:41.751Z,100.00
2023-11-14T22:24:11.683Z,100.00
2023-11-14T22:26:41.094Z,100.00
2023-11-14T22:29:10.484Z,100.00
2023-11-14T22:31:39.909Z,100.00
2023-11-14T22:34:09.333Z,100.00
2023-11-14T22:36:40.147Z,100.00
2023-11-14T22:39:09.557Z,100.00
2023-11-14T22:41:39.115Z,100.00
2023-11-14T22:44:08.519Z,100.00
2023-11-14T22:46:38.407Z,100.00
2023-11-14T22:49:07.792Z,100.00
2023-11-14T22:51:37.629Z,100.00
2023-11-14T22:54:07.101Z,100.00
2023-11-14T22:56:36.728Z,100.00
2023-11-14T22:59:07.262Z,100.00
2023-11-14T23:01:38.114Z,100.00
2023-11-14T23:04:10.497Z,100.00
2023-11-14T23:06:40.847Z,100.00
2023-11-14T23:09:16.406Z,100.00
2023-11-14T23:11:56.863Z,100.00
2023-11-14T23:14:27.369Z,100.00
2023-11-14T23:16:56.763Z,100.00
2023-11-14T23:19:28.290Z,100.00
2023-11-14T23:21:59.974Z,100.00
2023-11-14T23:24:30.828Z,100.00
2023-11-14T23:27:00.577Z,100.00
2023-11-14T23:29:30.036Z,100.00
2023-11-14T23:31:59.543Z,100.00
2023-11-14T23:34:29.006Z,100.00
2023-11-14T23:36:58.379Z,100.00
2023-11-14T23:39:28.013Z,100.00
2023-11-14T23:41:58.031Z,100.00
2023-11-14T23:44:27.682Z,100.00
2023-11-14T23:46:57.055Z,100.00
2023-11-14T23:49:26.437Z,100.00
2023-11-14T23:51:55.853Z,100.00
2023-11-14T23:54:25.354Z,100.00
2023-11-14T23:56:55.055Z,100.00
2023-11-14T23:59:24.981Z,100.00
